»·PEaware :: UAL576 KSFO-KLAS

UAL576 :: KSFO-KLAS

FLIGHT INFORMATION

Flight Status: Arrived
Operator:
United Airlines
More flights by this operator :: More flights under this callsign
Pilot: Anonymous 8274 (8274)
Aircraft: BOEING 737-300
(B733)
More flights by this aircraft type
Origin: KSFO San Francisco Intl
United States
Destination: KLAS McCarran Intl
United States
More flights between these airports :: More routes between these airports
Route: SSTIK3 NTELL Q162 ESSAA BTY SUNST4
File this flight plan on PilotEdge
Remarks:
Altitude:
(Current/Filed)
31,000ft
Speed:
(Current/Filed)
460kts
Departed: 03-Jul-18 08:21 PM
Arrived: 03-Jul-18 09:33 PM
Distance/Time
Traveled:
359nm/1:12
Distance/Time
To Go:
Arrived

Flight Plot

Page will automatically refresh every two minutes.

Flight plan parsing failed; only flown route is shown


Map Options




Map Legend


Flown Route
Filed Route
Departure Airport
Arrival Airport
Navaid (VOR, NDB)
Fix

Horizontal Profiles

Position Reports

Time Latitude Longitude Heading Altitude Ground
Speed
03-Jul-18 19:35 37.620194 -122.389386 27 19ft 0kts
03-Jul-18 19:36 37.620194 -122.389386 27 19ft 0kts
03-Jul-18 19:37 37.620194 -122.389386 27 19ft 0kts
03-Jul-18 19:38 37.620194 -122.389386 27 19ft 0kts
03-Jul-18 19:39 37.620194 -122.389386 27 19ft 0kts
03-Jul-18 19:40 37.620194 -122.389386 27 19ft 0kts
03-Jul-18 19:41 37.620194 -122.389386 26 19ft 0kts
03-Jul-18 19:42 37.620194 -122.389386 27 19ft 0kts
03-Jul-18 19:43 37.620194 -122.389386 27 19ft 0kts
03-Jul-18 19:44 37.620194 -122.389386 27 19ft 0kts
03-Jul-18 19:45 37.620194 -122.389386 27 19ft 0kts
03-Jul-18 19:46 37.620194 -122.389386 27 19ft 0kts
03-Jul-18 19:47 37.620194 -122.389386 27 19ft 0kts
03-Jul-18 19:48 37.620194 -122.389386 27 19ft 0kts
03-Jul-18 19:49 37.620194 -122.389386 27 19ft 0kts
03-Jul-18 19:50 37.620194 -122.389386 27 19ft 0kts
03-Jul-18 19:51 37.620194 -122.389386 27 19ft 0kts
03-Jul-18 19:52 37.620194 -122.389386 27 19ft 0kts
03-Jul-18 19:53 37.620194 -122.389386 27 19ft 0kts
03-Jul-18 19:54 37.620194 -122.389386 27 19ft 0kts
03-Jul-18 19:55 37.620194 -122.389386 27 19ft 0kts
03-Jul-18 19:56 37.620194 -122.389386 27 19ft 0kts
03-Jul-18 19:57 37.620194 -122.389386 27 19ft 0kts
03-Jul-18 19:58 37.620194 -122.389386 27 19ft 0kts
03-Jul-18 19:59 37.620194 -122.389386 27 19ft 0kts
03-Jul-18 20:00 37.620194 -122.389386 27 19ft 0kts
03-Jul-18 20:01 37.620194 -122.389386 27 19ft 0kts
03-Jul-18 20:02 37.620194 -122.389386 27 19ft 0kts
03-Jul-18 20:03 37.620194 -122.389386 27 19ft 0kts
03-Jul-18 20:04 37.620194 -122.389386 27 19ft 0kts
03-Jul-18 20:05 37.619771 -122.389656 27 19ft 2kts
03-Jul-18 20:06 37.619304 -122.389551 300 19ft 0kts
03-Jul-18 20:07 37.619272 -122.389467 296 19ft 0kts
03-Jul-18 20:08 37.619272 -122.389467 296 19ft 0kts
03-Jul-18 20:10 37.619272 -122.389469 296 19ft 0kts
03-Jul-18 20:11 37.619785 -122.390653 298 19ft 7kts
03-Jul-18 20:12 37.620051 -122.391276 298 19ft 0kts
03-Jul-18 20:13 37.620267 -122.391785 300 19ft 9kts
03-Jul-18 20:14 37.622518 -122.388835 115 19ft 17kts
03-Jul-18 20:15 37.619959 -122.382741 118 19ft 21kts
03-Jul-18 20:16 37.618039 -122.379582 160 19ft 12kts
03-Jul-18 20:17 37.612896 -122.382101 208 19ft 21kts
03-Jul-18 20:18 37.608511 -122.383966 118 19ft 0kts
03-Jul-18 20:19 37.608511 -122.383966 118 19ft 0kts
03-Jul-18 20:20 37.608511 -122.383966 118 19ft 0kts
03-Jul-18 20:21 37.608867 -122.382284 27 19ft 12kts
03-Jul-18 20:22 37.635418 -122.364359 29 840ft 164kts
03-Jul-18 20:23 37.684595 -122.359386 346 2409ft 227kts
03-Jul-18 20:24 37.685898 -122.419080 197 4903ft 252kts
03-Jul-18 20:25 37.614042 -122.439605 193 7704ft 276kts
03-Jul-18 20:26 37.538135 -122.460999 193 9935ft 285kts
03-Jul-18 20:27 37.461465 -122.428771 122 10802ft 352kts
03-Jul-18 20:28 37.408479 -122.324249 106 13433ft 368kts
03-Jul-18 20:29 37.383546 -122.197817 104 15850ft 382kts
03-Jul-18 20:30 37.357577 -122.066946 104 18107ft 395kts
03-Jul-18 20:31 37.329395 -121.933762 104 20180ft 407kts
03-Jul-18 20:32 37.302774 -121.793966 104 21822ft 426kts
03-Jul-18 20:33 37.273199 -121.647666 104 23443ft 441kts
03-Jul-18 20:34 37.242461 -121.496863 103 25038ft 452kts
03-Jul-18 20:35 37.210882 -121.343082 104 26510ft 463kts
03-Jul-18 20:36 37.178592 -121.186753 104 27927ft 471kts
03-Jul-18 20:37 37.145676 -121.028692 104 29668ft 467kts
03-Jul-18 20:38 37.112908 -120.872475 104 30873ft 469kts
03-Jul-18 20:39 37.079658 -120.715142 104 30862ft 468kts
03-Jul-18 20:40 37.054041 -120.594685 104 30860ft 469kts
03-Jul-18 20:41 37.023091 -120.450018 104 30862ft 469kts
03-Jul-18 20:42 36.989920 -120.295880 105 30846ft 469kts
03-Jul-18 20:43 36.956069 -120.139686 105 30862ft 469kts
03-Jul-18 20:44 36.922230 -119.984722 105 30861ft 469kts
03-Jul-18 20:45 36.910034 -119.827901 62 30841ft 463kts
03-Jul-18 20:46 36.967165 -119.683739 65 30866ft 465kts
03-Jul-18 20:47 37.015972 -119.534371 65 30861ft 464kts
03-Jul-18 20:48 37.064330 -119.385449 65 30859ft 464kts
03-Jul-18 20:49 37.111308 -119.239782 66 31020ft 466kts
03-Jul-18 20:50 37.159454 -119.089991 66 31186ft 464kts
03-Jul-18 20:51 37.207292 -118.940402 66 31152ft 464kts
03-Jul-18 20:52 37.254830 -118.790907 66 31187ft 464kts
03-Jul-18 20:53 37.285414 -118.634474 83 30999ft 468kts
03-Jul-18 20:54 37.299518 -118.472211 81 30884ft 468kts
03-Jul-18 20:55 37.313809 -118.315342 82 30855ft 469kts
03-Jul-18 20:56 37.328332 -118.153258 82 30889ft 468kts
03-Jul-18 20:57 37.342623 -117.991487 82 30888ft 468kts
03-Jul-18 20:58 37.346166 -117.828612 96 30891ft 470kts
03-Jul-18 20:59 37.330645 -117.666626 96 30885ft 462kts
03-Jul-18 21:00 37.316327 -117.506928 96 30966ft 463kts
03-Jul-18 21:01 37.302063 -117.350166 96 31055ft 463kts
03-Jul-18 21:02 37.244619 -117.219373 131 31055ft 459kts
03-Jul-18 21:03 37.166516 -117.093882 128 31049ft 458kts
03-Jul-18 21:04 37.089645 -116.968009 128 31038ft 458kts
03-Jul-18 21:05 36.989417 -116.877569 154 30875ft 453kts
03-Jul-18 21:06 36.885823 -116.806666 152 30855ft 454kts
03-Jul-18 21:07 36.780573 -116.723551 132 30895ft 457kts
03-Jul-18 21:08 36.698542 -116.602392 132 30858ft 457kts
03-Jul-18 21:08 36.628693 -116.502889 132 27907ft 462kts
03-Jul-18 21:09 36.546828 -116.386651 132 25441ft 430kts
03-Jul-18 21:10 36.469493 -116.277061 132 23157ft 429kts
03-Jul-18 21:11 36.392585 -116.169251 132 20691ft 414kts
03-Jul-18 21:12 36.318930 -116.065755 132 18057ft 393kts
03-Jul-18 21:13 36.248075 -115.966469 132 16818ft 392kts
03-Jul-18 21:14 36.188652 -115.865107 112 15859ft 334kts
03-Jul-18 21:15 36.156672 -115.763697 112 15400ft 324kts
03-Jul-18 21:16 36.124375 -115.663034 113 14953ft 316kts
03-Jul-18 21:17 36.091987 -115.563064 113 13667ft 321kts
03-Jul-18 21:18 36.062699 -115.460765 101 11913ft 312kts
03-Jul-18 21:19 36.047271 -115.355052 101 9747ft 317kts
03-Jul-18 21:20 36.032083 -115.249639 101 7581ft 320kts
03-Jul-18 21:21 36.024341 -115.142770 70 5974ft 303kts
03-Jul-18 21:22 36.071388 -115.067909 51 5997ft 247kts
03-Jul-18 21:23 36.117462 -115.015896 32 5988ft 224kts
03-Jul-18 21:24 36.172098 -114.978581 31 5958ft 227kts
03-Jul-18 21:25 36.227209 -114.942576 31 5975ft 222kts
03-Jul-18 21:26 36.278980 -114.967983 304 5307ft 231kts
03-Jul-18 21:27 36.283923 -115.031873 237 5025ft 171kts
03-Jul-18 21:28 36.252139 -115.067553 202 4657ft 148kts
03-Jul-18 21:29 36.212951 -115.089485 199 4325ft 151kts
03-Jul-18 21:30 36.173468 -115.111492 201 3830ft 150kts
03-Jul-18 21:31 36.135934 -115.132165 201 3007ft 144kts
03-Jul-18 21:32 36.099315 -115.153110 202 2197ft 141kts
03-Jul-18 21:33 36.078446 -115.164806 154 2118ft 15kts
03-Jul-18 21:34 36.078019 -115.160311 90 2118ft 15kts
03-Jul-18 21:35 36.078019 -115.153987 90 2118ft 22kts
03-Jul-18 21:36 36.077676 -115.145626 94 2118ft 26kts
03-Jul-18 21:37 36.078910 -115.139507 24 2118ft 12kts

Navigation Log

Ident Type
Flight plan parsing failed, navigation log unavailable